TimeICT,TemperatureF,Dew PointF,Humidity,Sea Level PressureIn,VisibilityMPH,Wind Direction,Wind SpeedMPH,Gust SpeedMPH,PrecipitationIn,Events,Conditions,WindDirDegrees,DateUTC
12:00 AM,84.2,73.4,70,29.86,4.3,SW,6.9,-,N/A,,Mostly Cloudy,220,2012-10-12 17:00:00
12:30 AM,86.0,73.4,66,29.83,4.3,SW,8.1,-,N/A,,Mostly Cloudy,220,2012-10-12 17:30:00
1:00 AM,82,77,81,29.82,6,Calm,Calm,,,,Scattered Clouds,,2012-10-12 18:00:00
1:00 AM,86.0,73.4,66,29.83,4.3,SW,6.9,-,N/A,,Mostly Cloudy,230,2012-10-12 18:00:00
1:30 AM,84.2,73.4,70,29.83,4.3,SW,8.1,-,N/A,,Mostly Cloudy,230,2012-10-12 18:30:00
2:00 AM,84.2,73.4,70,29.80,3.7,WSW,4.6,-,N/A,,Mostly Cloudy,250,2012-10-12 19:00:00
2:30 AM,84.2,73.4,70,29.80,3.7,WSW,4.6,-,N/A,,Mostly Cloudy,250,2012-10-12 19:30:00
3:00 AM,82.4,75.2,79,29.80,3.1,SW,5.8,-,N/A,,Mostly Cloudy,220,2012-10-12 20:00:00
3:30 AM,82.4,75.2,79,29.80,3.1,Calm,Calm,-,N/A,,Mostly Cloudy,0,2012-10-12 20:30:00
4:00 AM,82.4,75.2,79,29.80,3.1,Calm,Calm,-,N/A,,Mostly Cloudy,0,2012-10-12 21:00:00
4:30 AM,82.4,75.2,79,29.80,3.1,North,2.3,-,N/A,,Mostly Cloudy,10,2012-10-12 21:30:00
5:00 AM,82.4,75.2,79,29.80,3.1,Calm,Calm,-,N/A,,Mostly Cloudy,0,2012-10-12 22:00:00
5:30 AM,82.4,73.4,74,29.80,3.1,Calm,Calm,-,N/A,,Mostly Cloudy,0,2012-10-12 22:30:00
6:00 AM,80.6,73.4,79,29.83,3.1,Calm,Calm,-,N/A,,Mostly Cloudy,0,2012-10-12 23:00:00
6:30 AM,80.6,73.4,79,29.83,2.5,ENE,2.3,-,N/A,,Mostly Cloudy,70,2012-10-12 23:30:00
7:00 AM,80,76,84,29.82,6,Calm,Calm,,,,Mist,,2012-10-13 00:00:00
7:00 AM,82.4,75.2,79,29.83,3.1,ENE,3.5,-,N/A,,Mostly Cloudy,60,2012-10-13 00:00:00
7:30 AM,82.4,75.2,79,29.86,3.1,NE,3.5,-,N/A,,Mostly Cloudy,40,2012-10-13 00:30:00
8:00 AM,84.2,75.2,74,29.86,3.1,ENE,5.8,-,N/A,,Mostly Cloudy,60,2012-10-13 01:00:00
8:30 AM,84.2,75.2,74,29.86,3.1,ENE,4.6,-,N/A,,Mostly Cloudy,60,2012-10-13 01:30:00
9:00 AM,86.0,75.2,70,29.89,3.1,NNE,4.6,-,N/A,,Mostly Cloudy,30,2012-10-13 02:00:00
9:30 AM,87.8,73.4,62,29.89,3.1,ENE,4.6,-,N/A,,Mostly Cloudy,60,2012-10-13 02:30:00
10:00 AM,87.8,73.4,62,29.89,3.1,WSW,3.5,-,N/A,,Mostly Cloudy,240,2012-10-13 03:00:00
10:30 AM,87.8,75.2,66,29.89,3.1,NNW,3.5,-,N/A,,Mostly Cloudy,330,2012-10-13 03:30:00
11:00 AM,89.6,75.2,62,29.86,3.7,East,2.3,-,N/A,,Mostly Cloudy,90,2012-10-13 04:00:00
11:30 AM,89.6,73.4,59,29.86,5.0,SSE,4.6,-,N/A,,Mostly Cloudy,160,2012-10-13 04:30:00
12:00 PM,91.4,73.4,55,29.83,5.6,ESE,5.8,-,N/A,,Mostly Cloudy,120,2012-10-13 05:00:00
12:30 PM,91.4,71.6,52,29.83,5.6,East,10.4,-,N/A,,Mostly Cloudy,100,2012-10-13 05:30:00
1:00 PM,91,79,61,29.76,5,NW,3.5,,,,Mist,320,2012-10-13 06:00:00
1:00 PM,91.4,71.6,52,29.80,5.6,East,5.8,-,N/A,,Mostly Cloudy,100,2012-10-13 06:00:00
1:30 PM,91.4,73.4,55,29.77,5.6,ESE,6.9,-,N/A,,Mostly Cloudy,120,2012-10-13 06:30:00
2:30 PM,91.4,71.6,52,29.77,5.6,SSE,4.6,-,N/A,,Mostly Cloudy,150,2012-10-13 07:30:00
3:00 PM,93.2,73.4,52,29.74,5.6,ESE,5.8,-,N/A,,Mostly Cloudy,120,2012-10-13 08:00:00
3:30 PM,91.4,73.4,55,29.74,5.6,WSW,11.5,-,N/A,,Mostly Cloudy,240,2012-10-13 08:30:00
4:00 PM,91.4,73.4,55,29.74,5.6,WSW,10.4,-,N/A,,Mostly Cloudy,240,2012-10-13 09:00:00
4:30 PM,89.6,71.6,55,29.74,5.6,West,6.9,-,N/A,,Mostly Cloudy,260,2012-10-13 09:30:00
5:00 PM,89.6,73.4,59,29.74,5.6,West,5.8,-,N/A,,Mostly Cloudy,260,2012-10-13 10:00:00
5:30 PM,89.6,71.6,55,29.74,5.6,WSW,4.6,-,N/A,,Mostly Cloudy,250,2012-10-13 10:30:00
6:00 PM,89.6,71.6,55,29.77,5.6,West,4.6,-,N/A,,Mostly Cloudy,260,2012-10-13 11:00:00
6:30 PM,89.6,71.6,55,29.77,5.0,WSW,11.5,-,N/A,,Mostly Cloudy,240,2012-10-13 11:30:00
7:00 PM,85,77,72,29.79,5,Calm,Calm,,,,Mist,,2012-10-13 12:00:00
7:00 PM,89.6,71.6,55,29.80,5.0,WSW,9.2,-,N/A,,Mostly Cloudy,240,2012-10-13 12:00:00
7:30 PM,87.8,71.6,58,29.80,5.0,South,2.3,-,N/A,,Mostly Cloudy,190,2012-10-13 12:30:00
8:00 PM,86.0,73.4,66,29.83,4.3,SSW,5.8,-,N/A,,Mostly Cloudy,200,2012-10-13 13:00:00
8:30 PM,86.0,75.2,70,29.83,3.7,South,5.8,-,N/A,,Scattered Clouds,180,2012-10-13 13:30:00
9:00 PM,84.2,75.2,74,29.83,3.1,South,5.8,-,N/A,,Scattered Clouds,180,2012-10-13 14:00:00
9:30 PM,84.2,75.2,74,29.86,3.7,South,5.8,-,N/A,,Scattered Clouds,190,2012-10-13 14:30:00
10:00 PM,86.0,75.2,70,29.86,3.7,South,5.8,-,N/A,,Scattered Clouds,190,2012-10-13 15:00:00
10:30 PM,84.2,75.2,74,29.86,3.7,South,6.9,-,N/A,,Scattered Clouds,180,2012-10-13 15:30:00
11:00 PM,84.2,75.2,74,29.86,3.7,SSW,5.8,-,N/A,,Scattered Clouds,210,2012-10-13 16:00:00
11:30 PM,84.2,75.2,74,29.86,3.7,SSW,5.8,-,N/A,,Scattered Clouds,210,2012-10-13 16:30:00